Time;durP1;ratioP1;P1;durP2;ratioP2;P2;SDS_P1;SDS_P2;PMS_P1;PMS_P2;Temp;Humidity;BMP_temperature;BMP_pressure;BME280_temperature;BME280_humidity;BME280_pressure;Samples;Min_cycle;Max_cycle;Signal;HPM_P1;HPM_P2
2021/04/16 00:01:29;;;;;;;3.97;2.70;;;6.90;99.90;;;;;;4162336;28;20481;-68
2021/04/16 00:03:30;;;;;;;4.57;2.88;;;6.90;99.90;;;;;;4157740;28;20753;-68
2021/04/16 00:05:31;;;;;;;4.35;3.25;;;6.90;99.90;;;;;;4146924;28;20042;-68
2021/04/16 00:07:32;;;;;;;6.72;3.20;;;6.90;99.90;;;;;;4160961;28;20758;-68
2021/04/16 00:09:33;;;;;;;5.25;2.90;;;6.80;99.90;;;;;;4163696;28;20044;-68
2021/04/16 00:11:34;;;;;;;4.00;2.58;;;6.80;99.90;;;;;;4162352;28;20041;-68
2021/04/16 00:13:35;;;;;;;4.38;3.35;;;6.80;99.90;;;;;;4161260;28;20037;-68
2021/04/16 00:15:37;;;;;;;4.90;3.22;;;6.80;99.90;;;;;;4163023;28;20051;-68
2021/04/16 00:17:38;;;;;;;4.35;2.60;;;6.80;99.90;;;;;;4160222;28;20034;-68
2021/04/16 00:19:38;;;;;;;5.63;3.10;;;6.70;99.90;;;;;;4160262;28;20494;-68
2021/04/16 00:21:40;;;;;;;5.10;3.28;;;6.70;99.90;;;;;;4161993;28;20121;-67
2021/04/16 00:23:41;;;;;;;3.42;2.50;;;6.70;99.90;;;;;;4157982;28;20033;-68
2021/04/16 00:25:42;;;;;;;3.97;2.58;;;6.70;99.90;;;;;;4164919;28;20083;-67
2021/04/16 00:27:43;;;;;;;4.30;2.50;;;6.70;99.90;;;;;;4160923;28;20037;-68
2021/04/16 00:29:43;;;;;;;5.03;2.65;;;6.60;99.90;;;;;;4161715;28;20049;-68
2021/04/16 00:31:55;;;;;;;4.75;2.80;;;6.60;99.90;;;;;;4175286;28;20585;-68
2021/04/16 00:33:56;;;;;;;5.07;2.90;;;6.60;99.90;;;;;;4158023;28;23017;-68
2021/04/16 00:35:57;;;;;;;4.35;2.80;;;6.60;99.90;;;;;;4162007;28;20875;-68
2021/04/16 00:37:58;;;;;;;3.08;2.17;;;6.60;99.90;;;;;;4157297;28;20064;-68
2021/04/16 00:39:58;;;;;;;4.35;2.65;;;6.60;99.90;;;;;;4162296;28;20037;-68
2021/04/16 00:41:59;;;;;;;4.47;2.78;;;6.60;99.90;;;;;;4156481;28;20076;-68
2021/04/16 00:44:00;;;;;;;5.35;2.92;;;6.60;99.90;;;;;;4154657;28;20041;-68
2021/04/16 00:46:40;;;;;;;4.47;2.47;;;6.60;99.90;;;;;;4160753;28;20748;-68
2021/04/16 00:48:52;;;;;;;4.80;2.78;;;6.60;99.90;;;;;;4145654;28;20116;-68
2021/04/16 00:50:55;;;;;;;3.92;2.83;;;6.60;99.90;;;;;;4160767;28;20048;-68
2021/04/16 00:52:56;;;;;;;4.43;2.83;;;6.60;99.90;;;;;;4171697;28;20041;-68
2021/04/16 00:54:57;;;;;;;4.38;2.92;;;6.60;99.90;;;;;;4159647;28;20063;-68
2021/04/16 00:56:58;;;;;;;5.25;2.50;;;6.50;99.90;;;;;;4158022;28;20030;-68
2021/04/16 00:58:59;;;;;;;4.15;2.85;;;6.50;99.90;;;;;;4154227;28;20038;-67
2021/04/16 01:01:02;;;;;;;4.55;2.80;;;6.50;99.90;;;;;;4159771;28;20033;-68
2021/04/16 01:03:04;;;;;;;5.30;2.95;;;6.50;99.90;;;;;;4161936;28;20042;-68
2021/04/16 01:05:08;;;;;;;4.72;2.90;;;6.50;99.90;;;;;;4160476;28;20087;-67
2021/04/16 01:07:09;;;;;;;3.47;2.42;;;6.50;99.90;;;;;;4156399;28;20029;-68
2021/04/16 01:09:10;;;;;;;4.53;2.88;;;6.40;99.90;;;;;;4151508;28;20061;-67
2021/04/16 01:11:11;;;;;;;4.10;2.60;;;6.40;99.90;;;;;;4161682;28;20148;-68
2021/04/16 01:13:12;;;;;;;4.20;2.60;;;6.40;99.90;;;;;;4183014;28;20041;-67
2021/04/16 01:15:30;;;;;;;3.72;2.70;;;6.40;99.90;;;;;;4154138;28;20040;-68
2021/04/16 01:17:31;;;;;;;3.17;2.35;;;6.40;99.90;;;;;;4163504;28;20045;-68
2021/04/16 01:19:38;;;;;;;4.07;2.70;;;6.40;99.90;;;;;;4155289;28;20057;-68
2021/04/16 01:22:04;;;;;;;3.47;2.72;;;6.30;99.90;;;;;;4163465;28;20497;-68
2021/04/16 01:24:24;;;;;;;5.50;2.67;;;6.30;99.90;;;;;;4160642;28;20033;-68
2021/04/16 01:26:35;;;;;;;4.90;3.03;;;6.30;99.90;;;;;;4167529;28;20040;-68
2021/04/16 01:28:36;;;;;;;3.85;2.88;;;6.30;99.90;;;;;;4154532;28;20037;-68
2021/04/16 01:30:54;;;;;;;5.57;2.58;;;6.30;99.90;;;;;;4160832;28;20367;-68
2021/04/16 01:32:55;;;;;;;3.35;2.60;;;6.30;99.90;;;;;;4162725;28;20099;-68
2021/04/16 01:34:56;;;;;;;3.00;2.20;;;6.30;99.90;;;;;;4153194;28;20033;-68
2021/04/16 01:36:58;;;;;;;3.88;2.33;;;6.30;99.90;;;;;;4154198;28;20052;-68
2021/04/16 01:39:02;;;;;;;4.43;2.80;;;6.30;99.90;;;;;;4176428;28;20373;-68
2021/04/16 01:41:02;;;;;;;4.90;2.50;;;6.20;99.90;;;;;;4163031;28;20555;-68
2021/04/16 01:43:27;;;;;;;4.95;2.60;;;6.20;99.90;;;;;;4168342;28;20084;-68
2021/04/16 01:45:29;;;;;;;3.70;2.40;;;6.20;99.90;;;;;;4157962;28;20037;-68
2021/04/16 01:47:30;;;;;;;4.82;2.60;;;6.20;99.90;;;;;;4161386;28;20044;-68
2021/04/16 01:49:35;;;;;;;4.10;2.53;;;6.20;99.90;;;;;;4162583;28;20044;-68
2021/04/16 01:51:36;;;;;;;4.32;2.42;;;6.20;99.90;;;;;;4174195;28;20041;-68
2021/04/16 01:53:37;;;;;;;4.90;2.13;;;6.20;99.90;;;;;;4156176;28;20041;-68
2021/04/16 01:55:37;;;;;;;3.85;2.63;;;6.20;99.90;;;;;;4191448;28;20033;-67
2021/04/16 01:57:38;;;;;;;4.47;2.80;;;6.20;99.90;;;;;;4162050;28;20478;-68
2021/04/16 01:59:41;;;;;;;4.90;2.55;;;6.30;99.90;;;;;;4164172;28;20037;-68
2021/04/16 02:01:45;;;;;;;5.43;2.80;;;6.30;99.90;;;;;;4166013;28;20044;-68
2021/04/16 02:03:46;;;;;;;7.00;2.95;;;6.30;99.90;;;;;;4162623;28;20033;-68
2021/04/16 02:05:47;;;;;;;3.13;2.40;;;6.30;99.90;;;;;;4176763;28;20264;-68
2021/04/16 02:07:48;;;;;;;4.40;2.60;;;6.20;99.90;;;;;;4167422;28;20103;-67
2021/04/16 02:09:49;;;;;;;3.28;2.50;;;6.30;99.90;;;;;;4158977;28;20494;-68
2021/04/16 02:11:49;;;;;;;3.13;2.47;;;6.20;99.90;;;;;;4156236;28;20031;-68
2021/04/16 02:13:50;;;;;;;5.20;2.60;;;6.30;99.90;;;;;;4168519;28;20453;-67
2021/04/16 02:15:51;;;;;;;3.80;2.65;;;6.20;99.90;;;;;;4193172;28;20027;-68
2021/04/16 02:17:51;;;;;;;3.97;2.65;;;6.20;99.90;;;;;;4167608;28;20081;-68
2021/04/16 02:19:54;;;;;;;3.35;2.42;;;6.20;99.90;;;;;;4161392;28;20549;-68
2021/04/16 02:21:54;;;;;;;4.15;2.50;;;6.20;99.90;;;;;;4176961;28;20097;-68
2021/04/16 02:23:55;;;;;;;4.50;2.60;;;6.20;99.90;;;;;;4163698;28;20037;-68
2021/04/16 02:25:56;;;;;;;5.13;2.92;;;6.20;99.90;;;;;;4158933;28;20041;-68
2021/04/16 02:27:57;;;;;;;3.78;2.55;;;6.20;99.90;;;;;;4181578;28;20040;-68
2021/04/16 02:29:58;;;;;;;4.45;2.88;;;6.20;99.90;;;;;;4163381;28;20359;-68
2021/04/16 02:31:58;;;;;;;4.22;2.40;;;6.20;99.90;;;;;;4158610;28;20086;-68
2021/04/16 02:33:59;;;;;;;3.58;2.30;;;6.20;99.90;;;;;;4162814;28;20425;-68
2021/04/16 02:35:59;;;;;;;4.70;2.90;;;6.20;99.90;;;;;;4160184;28;20083;-68
2021/04/16 02:38:00;;;;;;;5.00;3.00;;;6.20;99.90;;;;;;4158850;28;20033;-68
2021/04/16 02:40:01;;;;;;;4.13;2.97;;;6.20;99.90;;;;;;4151673;28;20040;-68
2021/04/16 02:42:02;;;;;;;4.85;2.70;;;6.10;99.90;;;;;;4159590;28;20093;-68
2021/04/16 02:44:04;;;;;;;4.88;2.95;;;6.10;99.90;;;;;;4166543;28;20839;-67
2021/04/16 02:46:05;;;;;;;4.10;2.67;;;6.10;99.90;;;;;;4158361;28;20132;-68
2021/04/16 02:48:06;;;;;;;3.55;2.60;;;6.10;99.90;;;;;;4162605;28;20037;-68
2021/04/16 02:50:10;;;;;;;6.28;2.80;;;6.10;99.90;;;;;;4159290;28;20033;-68
2021/04/16 02:52:10;;;;;;;5.65;3.10;;;6.10;99.90;;;;;;4197101;28;20663;-68
2021/04/16 02:54:11;;;;;;;4.15;2.95;;;6.00;99.90;;;;;;4180249;28;20033;-68
2021/04/16 02:56:12;;;;;;;4.95;3.17;;;6.00;99.90;;;;;;4158135;28;20091;-67
2021/04/16 02:58:12;;;;;;;6.00;3.50;;;6.00;99.90;;;;;;4197312;28;20134;-67
2021/04/16 03:00:18;;;;;;;5.65;3.10;;;6.00;99.90;;;;;;4158019;28;20115;-68
2021/04/16 03:02:19;;;;;;;4.22;2.67;;;5.90;99.90;;;;;;4154496;28;20057;-68
2021/04/16 03:04:20;;;;;;;8.10;3.50;;;6.00;99.90;;;;;;4165209;28;20025;-68
2021/04/16 03:06:21;;;;;;;6.15;3.10;;;5.90;99.90;;;;;;4159159;28;20056;-68
2021/04/16 03:08:21;;;;;;;5.25;3.17;;;5.90;99.90;;;;;;4164436;28;20108;-68
2021/04/16 03:10:27;;;;;;;4.90;3.03;;;5.90;99.90;;;;;;4163477;28;20041;-68
2021/04/16 03:12:28;;;;;;;5.18;3.20;;;5.90;99.90;;;;;;4154198;28;20053;-68
2021/04/16 03:14:29;;;;;;;4.68;3.05;;;5.90;99.90;;;;;;4164576;28;20417;-68
2021/04/16 03:16:30;;;;;;;8.25;3.85;;;5.90;99.90;;;;;;4156434;28;20045;-68
2021/04/16 03:18:31;;;;;;;5.25;3.30;;;5.90;99.90;;;;;;4164407;28;22023;-68
2021/04/16 03:20:32;;;;;;;7.22;3.72;;;5.90;99.90;;;;;;4162922;28;20037;-68
2021/04/16 03:22:32;;;;;;;5.78;3.95;;;5.80;99.90;;;;;;4171550;28;20193;-68
2021/04/16 03:24:33;;;;;;;5.63;3.67;;;5.80;99.90;;;;;;4164281;28;20456;-67
2021/04/16 03:26:34;;;;;;;5.00;3.67;;;5.70;99.90;;;;;;4173682;28;20044;-68
2021/04/16 03:28:35;;;;;;;6.20;3.70;;;5.80;99.90;;;;;;4172295;28;20041;-67
2021/04/16 03:30:35;;;;;;;8.07;4.68;;;5.80;99.90;;;;;;4160174;28;20030;-67
2021/04/16 03:32:36;;;;;;;8.48;4.38;;;5.70;99.90;;;;;;4161044;28;20049;-68
2021/04/16 03:34:37;;;;;;;7.63;4.55;;;5.70;99.90;;;;;;4176322;28;20044;-68
2021/04/16 03:36:38;;;;;;;8.93;4.53;;;5.70;99.90;;;;;;4177029;28;20079;-68
2021/04/16 03:38:39;;;;;;;6.30;4.28;;;5.70;99.90;;;;;;4162626;28;20040;-68
2021/04/16 03:40:39;;;;;;;8.25;4.57;;;5.70;99.90;;;;;;4164919;28;20033;-68
2021/04/16 03:42:40;;;;;;;9.95;4.82;;;5.70;99.90;;;;;;4160776;28;20041;-68
2021/04/16 03:44:41;;;;;;;6.80;4.72;;;5.60;99.90;;;;;;4165623;28;20088;-68
2021/04/16 03:46:42;;;;;;;8.38;4.90;;;5.60;99.90;;;;;;4165654;28;20030;-68
2021/04/16 03:48:42;;;;;;;8.45;5.40;;;5.60;99.90;;;;;;4160742;28;20371;-68
2021/04/16 03:50:43;;;;;;;7.70;5.10;;;5.60;99.90;;;;;;4166090;28;20033;-68
2021/04/16 03:52:44;;;;;;;7.35;4.50;;;5.60;99.90;;;;;;4168260;28;20469;-68
2021/04/16 03:54:44;;;;;;;7.07;4.32;;;5.60;99.90;;;;;;4169478;28;20041;-68
2021/04/16 03:56:45;;;;;;;8.07;4.47;;;5.60;99.90;;;;;;4161056;28;20692;-67
2021/04/16 03:58:46;;;;;;;6.63;4.43;;;5.60;99.90;;;;;;4159743;28;20034;-68
2021/04/16 04:00:47;;;;;;;5.63;3.97;;;5.60;99.90;;;;;;4165326;28;20037;-68
2021/04/16 04:02:48;;;;;;;6.65;4.05;;;5.60;99.90;;;;;;4163304;28;20037;-68
2021/04/16 04:04:49;;;;;;;9.35;4.55;;;5.60;99.90;;;;;;4169576;28;20037;-68
2021/04/16 04:06:50;;;;;;;6.80;3.97;;;5.60;99.90;;;;;;4157094;28;20340;-68
2021/04/16 04:08:50;;;;;;;9.27;4.45;;;5.60;99.90;;;;;;4158940;28;20049;-68
2021/04/16 04:10:51;;;;;;;6.07;4.20;;;5.60;99.90;;;;;;4158349;28;20041;-68
2021/04/16 04:12:52;;;;;;;6.68;3.90;;;5.60;99.90;;;;;;4160918;28;20048;-67
2021/04/16 04:14:52;;;;;;;7.15;4.22;;;5.60;99.90;;;;;;4167686;28;20090;-67
2021/04/16 04:16:54;;;;;;;6.97;4.07;;;5.60;99.90;;;;;;4157612;28;20026;-68
2021/04/16 04:18:56;;;;;;;6.95;3.97;;;5.60;99.90;;;;;;4166238;28;20099;-68
2021/04/16 04:20:57;;;;;;;5.88;3.88;;;5.60;99.90;;;;;;4168429;28;20649;-67
2021/04/16 04:22:59;;;;;;;6.88;4.18;;;5.60;99.90;;;;;;4167192;28;20128;-68
2021/04/16 04:25:00;;;;;;;6.45;4.00;;;5.60;99.90;;;;;;4168832;28;20060;-68
2021/04/16 04:27:00;;;;;;;6.75;4.00;;;5.60;99.90;;;;;;4159302;28;20518;-67
2021/04/16 04:29:01;;;;;;;5.13;3.78;;;5.50;99.90;;;;;;4179763;28;20033;-67
2021/04/16 04:31:02;;;;;;;5.65;3.88;;;5.50;99.90;;;;;;4160802;28;20042;-67
2021/04/16 04:33:03;;;;;;;4.90;3.30;;;5.50;99.90;;;;;;4165139;28;20047;-68
2021/04/16 04:35:05;;;;;;;7.55;4.15;;;5.50;99.90;;;;;;4182661;28;20427;-68
2021/04/16 04:37:07;;;;;;;6.50;4.35;;;5.50;99.90;;;;;;4159896;28;20057;-68
2021/04/16 04:39:08;;;;;;;6.53;4.18;;;5.50;99.90;;;;;;4165723;28;20538;-68
2021/04/16 04:41:09;;;;;;;6.05;3.70;;;5.50;99.90;;;;;;4143780;28;20034;-68
2021/04/16 04:43:10;;;;;;;7.65;3.80;;;5.50;99.90;;;;;;4182908;28;20037;-68
2021/04/16 04:45:12;;;;;;;6.13;3.72;;;5.50;99.90;;;;;;4162580;28;20053;-68
2021/04/16 04:47:13;;;;;;;5.50;3.65;;;5.50;99.90;;;;;;4156293;28;20032;-67
2021/04/16 04:49:16;;;;;;;5.70;3.55;;;5.50;99.90;;;;;;4184464;28;20029;-67
2021/04/16 04:51:18;;;;;;;5.75;3.30;;;5.60;99.90;;;;;;4160642;28;20029;-68
2021/04/16 04:53:18;;;;;;;5.50;3.45;;;5.60;99.90;;;;;;4160466;28;20120;-68
2021/04/16 04:55:23;;;;;;;7.00;3.83;;;5.60;99.90;;;;;;4155294;28;20033;-67
2021/04/16 04:57:26;;;;;;;6.95;4.18;;;5.60;99.90;;;;;;4160328;28;20041;-68
2021/04/16 04:59:27;;;;;;;7.13;3.60;;;5.60;99.90;;;;;;4160301;28;20050;-68
2021/04/16 05:01:27;;;;;;;7.70;3.67;;;5.60;99.90;;;;;;4155860;28;20040;-67
2021/04/16 05:03:28;;;;;;;6.95;3.63;;;5.60;99.90;;;;;;4157957;28;20033;-68
2021/04/16 05:05:28;;;;;;;6.30;3.50;;;5.60;99.90;;;;;;4159126;28;20533;-68
2021/04/16 05:07:29;;;;;;;7.53;4.05;;;5.60;99.90;;;;;;4152262;28;20140;-67
2021/04/16 05:09:30;;;;;;;6.22;3.45;;;5.60;99.90;;;;;;4158588;28;20041;-68
2021/04/16 05:11:31;;;;;;;5.97;3.58;;;5.60;99.90;;;;;;4147716;28;20065;-68
2021/04/16 05:13:31;;;;;;;6.25;3.65;;;5.60;99.90;;;;;;4155236;28;20270;-68
2021/04/16 05:15:32;;;;;;;6.35;3.67;;;5.70;99.90;;;;;;4153387;28;20046;-67
2021/04/16 05:17:33;;;;;;;7.68;3.97;;;5.70;99.90;;;;;;4159059;28;20501;-68
2021/04/16 05:19:39;;;;;;;4.88;3.63;;;5.70;99.90;;;;;;4157779;28;20709;-68
2021/04/16 05:21:40;;;;;;;10.27;4.22;;;5.70;99.90;;;;;;4142068;28;20046;-68
2021/04/16 05:23:41;;;;;;;8.07;4.68;;;5.70;99.90;;;;;;4150503;28;20033;-68
2021/04/16 05:25:41;;;;;;;8.30;3.88;;;5.70;99.90;;;;;;4160607;28;20041;-68
2021/04/16 05:27:42;;;;;;;6.75;4.18;;;5.70;99.90;;;;;;4160359;28;20029;-67
2021/04/16 05:29:43;;;;;;;5.75;3.90;;;5.70;99.90;;;;;;4159012;28;20029;-68
2021/04/16 05:31:44;;;;;;;7.72;4.25;;;5.70;99.90;;;;;;4156274;28;20034;-68
2021/04/16 05:33:44;;;;;;;7.38;4.43;;;5.70;99.90;;;;;;4160700;28;20502;-68
2021/04/16 05:35:45;;;;;;;7.15;4.03;;;5.80;99.90;;;;;;4109722;28;20049;-68
2021/04/16 05:37:45;;;;;;;8.85;4.55;;;5.80;99.90;;;;;;4159192;28;20040;-68
2021/04/16 05:39:50;;;;;;;7.72;4.43;;;5.80;99.90;;;;;;4158225;28;20037;-68
2021/04/16 05:41:51;;;;;;;9.38;4.65;;;5.80;99.90;;;;;;4154423;28;20711;-68
2021/04/16 05:43:51;;;;;;;7.82;4.78;;;5.80;99.90;;;;;;4157029;28;20053;-68
2021/04/16 05:45:52;;;;;;;7.55;4.55;;;5.90;99.90;;;;;;4186997;28;20625;-68
2021/04/16 05:47:52;;;;;;;9.35;5.00;;;5.90;99.90;;;;;;4157399;28;20052;-68
2021/04/16 05:49:53;;;;;;;9.18;4.28;;;5.90;99.90;;;;;;4159909;28;20376;-68
2021/04/16 05:51:54;;;;;;;9.38;4.72;;;5.90;99.90;;;;;;4183710;28;20378;-68
2021/04/16 05:53:54;;;;;;;13.13;5.40;;;6.00;99.90;;;;;;4158246;28;20034;-67
2021/04/16 05:55:55;;;;;;;11.10;5.32;;;6.00;99.90;;;;;;4159618;28;20022;-68
2021/04/16 05:57:57;;;;;;;11.82;4.75;;;6.00;99.90;;;;;;4159763;28;20045;-68
2021/04/16 05:59:58;;;;;;;6.70;3.97;;;6.00;99.90;;;;;;4177161;28;20037;-68
2021/04/16 06:01:58;;;;;;;10.32;4.35;;;6.00;99.90;;;;;;4159040;28;20129;-68
2021/04/16 06:03:59;;;;;;;7.55;4.03;;;6.10;99.90;;;;;;4159194;28;20064;-68
2021/04/16 06:06:01;;;;;;;9.82;4.20;;;6.10;99.90;;;;;;4160198;28;20113;-68
2021/04/16 06:08:02;;;;;;;9.10;4.32;;;6.20;99.90;;;;;;4159711;28;20033;-68
2021/04/16 06:10:06;;;;;;;7.47;4.20;;;6.20;99.90;;;;;;4157852;28;20033;-68
2021/04/16 06:12:07;;;;;;;6.68;3.90;;;6.20;99.90;;;;;;4186465;28;21694;-68
2021/04/16 06:14:09;;;;;;;7.32;4.40;;;6.30;99.90;;;;;;4159701;28;20083;-67
2021/04/16 06:16:09;;;;;;;6.78;4.10;;;6.30;99.90;;;;;;4159170;28;20099;-68
2021/04/16 06:18:10;;;;;;;7.28;4.28;;;6.30;99.90;;;;;;4159906;28;20045;-68
2021/04/16 06:20:13;;;;;;;6.15;3.90;;;6.40;99.90;;;;;;4159267;28;20651;-68
2021/04/16 06:22:14;;;;;;;6.13;3.47;;;6.40;99.90;;;;;;4159359;28;20041;-68
2021/04/16 06:24:14;;;;;;;7.63;4.03;;;6.40;99.90;;;;;;4159605;28;20072;-68
2021/04/16 06:26:16;;;;;;;9.65;5.10;;;6.50;99.90;;;;;;4157040;28;20433;-68
2021/04/16 06:28:17;;;;;;;7.65;4.50;;;6.50;99.90;;;;;;4161355;28;20037;-68
2021/04/16 06:30:19;;;;;;;7.40;4.28;;;6.60;99.90;;;;;;4163348;28;20479;-67
2021/04/16 06:32:21;;;;;;;7.80;3.97;;;6.60;99.90;;;;;;4162495;28;20050;-68
2021/04/16 06:34:22;;;;;;;7.90;4.82;;;6.70;99.90;;;;;;4163575;28;20199;-68
2021/04/16 06:36:22;;;;;;;6.93;4.25;;;6.70;99.90;;;;;;4169816;28;20029;-68
2021/04/16 06:38:33;;;;;;;6.88;3.85;;;6.70;99.90;;;;;;4157333;28;20117;-68
2021/04/16 06:40:34;;;;;;;8.88;4.18;;;6.80;99.90;;;;;;4154902;28;20113;-68
2021/04/16 06:42:35;;;;;;;9.70;4.70;;;6.80;99.90;;;;;;4157009;28;20057;-69
2021/04/16 06:44:46;;;;;;;8.65;4.68;;;6.90;99.90;;;;;;4165852;28;20076;-68
2021/04/16 06:46:49;;;;;;;9.85;4.18;;;6.90;99.90;;;;;;4165153;28;20037;-68
2021/04/16 06:48:50;;;;;;;8.15;3.95;;;6.90;99.90;;;;;;4166776;28;20595;-69
2021/04/16 06:50:56;;;;;;;9.65;4.40;;;7.00;99.90;;;;;;4163596;28;20053;-69
2021/04/16 06:53:29;;;;;;;11.32;4.38;;;7.10;99.90;;;;;;4160796;28;20044;-69
2021/04/16 06:55:43;;;;;;;9.73;4.47;;;7.10;99.90;;;;;;4157074;28;20080;-69
2021/04/16 06:58:09;;;;;;;8.75;4.78;;;7.20;99.90;;;;;;4178339;28;20048;-69
2021/04/16 07:00:21;;;;;;;8.40;4.65;;;7.20;99.90;;;;;;4144964;28;20087;-69
2021/04/16 07:02:31;;;;;;;7.45;4.53;;;7.30;99.90;;;;;;4166225;28;20033;-69
2021/04/16 07:04:38;;;;;;;9.07;3.95;;;7.30;99.90;;;;;;4161811;28;20053;-69
2021/04/16 07:06:39;;;;;;;7.97;4.50;;;7.40;99.90;;;;;;4170790;28;20030;-69
2021/04/16 07:08:42;;;;;;;7.22;4.50;;;7.40;99.90;;;;;;4162823;28;20191;-69
2021/04/16 07:10:44;;;;;;;10.35;4.97;;;7.40;99.90;;;;;;4176751;28;20395;-69
2021/04/16 07:12:45;;;;;;;7.78;4.20;;;7.50;99.90;;;;;;4167165;28;20484;-69
2021/04/16 07:14:49;;;;;;;7.63;4.45;;;7.50;99.90;;;;;;4165163;28;20116;-69
2021/04/16 07:16:50;;;;;;;7.10;4.20;;;7.50;99.90;;;;;;4167893;28;20025;-69
2021/04/16 07:18:56;;;;;;;7.68;4.45;;;7.60;99.90;;;;;;4164215;28;20091;-69
2021/04/16 07:20:57;;;;;;;10.05;4.40;;;7.60;99.90;;;;;;4197453;28;20131;-69
2021/04/16 07:22:58;;;;;;;7.53;4.13;;;7.60;99.90;;;;;;4189096;28;20036;-69
2021/04/16 07:25:03;;;;;;;10.02;4.07;;;7.70;99.90;;;;;;4176828;28;20033;-69
2021/04/16 07:27:40;;;;;;;9.02;4.82;;;7.70;99.90;;;;;;4165963;28;20045;-69
2021/04/16 07:29:54;;;;;;;7.72;4.13;;;7.70;99.90;;;;;;4163909;28;20038;-69
2021/04/16 07:31:57;;;;;;;10.43;4.30;;;7.80;99.90;;;;;;4199868;28;20066;-69
2021/04/16 07:34:00;;;;;;;9.48;5.00;;;7.80;99.90;;;;;;4168348;28;20098;-69
2021/04/16 07:36:23;;;;;;;8.38;4.47;;;7.90;99.90;;;;;;4160559;28;20526;-69
2021/04/16 07:38:30;;;;;;;5.68;4.07;;;7.90;99.90;;;;;;4159293;28;20122;-69
2021/04/16 07:40:39;;;;;;;8.60;4.75;;;7.90;99.90;;;;;;4159976;28;20037;-69
2021/04/16 07:42:41;;;;;;;6.95;4.57;;;8.10;99.90;;;;;;4165346;28;20044;-69
2021/04/16 07:44:56;;;;;;;7.00;4.53;;;8.10;99.90;;;;;;4162988;28;20033;-69
2021/04/16 07:47:00;;;;;;;6.40;3.92;;;8.20;99.90;;;;;;4157675;28;20072;-69
2021/04/16 07:49:10;;;;;;;7.25;3.90;;;8.20;99.90;;;;;;4162010;28;20044;-69
2021/04/16 07:51:11;;;;;;;6.85;4.03;;;8.30;99.90;;;;;;4162670;28;20033;-68
2021/04/16 07:53:38;;;;;;;7.53;4.65;;;8.40;99.90;;;;;;4167722;28;20105;-69
2021/04/16 07:55:38;;;;;;;8.75;5.00;;;8.50;99.90;;;;;;4163560;28;20082;-69
2021/04/16 07:57:42;;;;;;;9.07;4.80;;;8.60;99.90;;;;;;4173887;28;20072;-69
2021/04/16 08:00:05;;;;;;;14.50;5.65;;;8.70;99.90;;;;;;4171087;28;20033;-69
2021/04/16 08:02:19;;;;;;;8.15;4.03;;;8.70;99.90;;;;;;4160988;28;20037;-69
2021/04/16 08:04:33;;;;;;;10.25;4.95;;;8.80;99.90;;;;;;4163502;28;20813;-69
2021/04/16 08:06:46;;;;;;;10.10;4.95;;;8.90;99.90;;;;;;4159163;28;20044;-70
2021/04/16 08:08:47;;;;;;;9.00;4.72;;;9.00;99.90;;;;;;4162794;28;21553;-70
2021/04/16 08:11:14;;;;;;;6.68;4.43;;;9.10;99.90;;;;;;4166487;28;20095;-69
2021/04/16 08:13:27;;;;;;;7.38;4.43;;;9.10;99.90;;;;;;4162948;28;20405;-67
2021/04/16 08:15:28;;;;;;;6.50;4.05;;;9.20;99.90;;;;;;4161058;28;20036;-67
2021/04/16 08:17:30;;;;;;;6.38;3.53;;;9.30;99.90;;;;;;4163707;28;20121;-67
2021/04/16 08:19:34;;;;;;;5.13;3.50;;;9.40;99.90;;;;;;4160431;28;20528;-67
2021/04/16 08:21:38;;;;;;;6.93;3.10;;;9.50;99.90;;;;;;4163874;28;20044;-67
2021/04/16 08:23:54;;;;;;;6.35;3.67;;;9.50;99.90;;;;;;4154813;28;20079;-67
2021/04/16 08:25:57;;;;;;;6.82;3.95;;;9.60;99.90;;;;;;4176727;28;20021;-67
2021/04/16 08:28:21;;;;;;;6.95;3.92;;;9.60;99.90;;;;;;4163748;28;20037;-67
2021/04/16 08:30:36;;;;;;;10.10;3.38;;;9.70;99.90;;;;;;4165166;28;20660;-67
2021/04/16 08:33:01;;;;;;;4.93;3.33;;;9.80;99.90;;;;;;4180755;28;20040;-67
2021/04/16 08:35:20;;;;;;;5.10;3.38;;;9.90;99.90;;;;;;4161866;28;20037;-67
2021/04/16 08:37:49;;;;;;;5.28;3.35;;;10.10;99.90;;;;;;4166706;28;20087;-67
2021/04/16 08:39:50;;;;;;;6.55;3.40;;;10.20;99.90;;;;;;4171533;28;20499;-67
2021/04/16 08:42:01;;;;;;;6.38;3.40;;;10.20;99.90;;;;;;4163204;28;20029;-67
2021/04/16 08:44:07;;;;;;;6.22;3.40;;;10.40;99.90;;;;;;4165203;28;20420;-68
2021/04/16 08:46:27;;;;;;;5.22;2.97;;;10.50;99.90;;;;;;4165802;28;20068;-67
2021/04/16 08:48:35;;;;;;;3.95;2.88;;;10.50;99.90;;;;;;4156153;28;20037;-67
2021/04/16 08:50:40;;;;;;;3.60;2.63;;;10.70;99.90;;;;;;4183905;28;20036;-67
2021/04/16 08:52:52;;;;;;;3.30;2.22;;;10.80;99.90;;;;;;4175700;28;20045;-67
2021/04/16 08:54:54;;;;;;;5.00;2.90;;;10.90;99.90;;;;;;4164357;28;20059;-67
2021/04/16 08:57:19;;;;;;;4.85;2.97;;;11.10;99.90;;;;;;4161327;28;20469;-67
2021/04/16 08:59:22;;;;;;;4.60;2.95;;;11.20;99.90;;;;;;4164190;28;20044;-68
2021/04/16 09:01:30;;;;;;;;;;;11.40;99.90;;;;;;4202170;28;20718;-67
2021/04/16 09:04:05;;;;;;;4.47;2.78;;;11.50;99.90;;;;;;4159993;28;19917;-67
2021/04/16 09:06:08;;;;;;;5.40;2.75;;;11.70;99.90;;;;;;4153694;28;20044;-67
2021/04/16 09:08:09;;;;;;;4.20;2.42;;;11.60;97.70;;;;;;4162933;28;20124;-67
2021/04/16 09:10:15;;;;;;;5.63;2.53;;;11.70;98.30;;;;;;4161969;28;20045;-67
2021/04/16 09:12:40;;;;;;;7.32;2.90;;;11.90;96.50;;;;;;4165268;28;20025;-67
2021/04/16 09:14:41;;;;;;;7.63;2.75;;;11.80;93.90;;;;;;4151938;28;20820;-67
2021/04/16 09:16:53;;;;;;;8.80;2.88;;;11.80;92.60;;;;;;4164762;28;20056;-67
2021/04/16 09:19:23;;;;;;;4.85;2.72;;;11.90;93.20;;;;;;4184095;28;20522;-67
2021/04/16 09:21:29;;;;;;;8.32;3.08;;;12.10;94.90;;;;;;4156528;28;20083;-67
2021/04/16 09:23:32;;;;;;;4.75;2.58;;;12.20;94.10;;;;;;4150754;28;20516;-68
2021/04/16 09:25:41;;;;;;;5.75;3.00;;;12.30;94.70;;;;;;4163946;28;20037;-67
2021/04/16 09:27:42;;;;;;;5.47;2.70;;;12.50;94.50;;;;;;4162826;28;20568;-67
2021/04/16 09:29:43;;;;;;;5.47;3.22;;;12.60;94.50;;;;;;4167600;28;20099;-67
2021/04/16 09:31:48;;;;;;;5.05;2.40;;;12.60;94.50;;;;;;4168333;28;20735;-67
2021/04/16 09:34:10;;;;;;;4.47;2.72;;;12.70;93.60;;;;;;4170384;28;20037;-67
2021/04/16 09:36:32;;;;;;;6.65;2.90;;;12.80;92.30;;;;;;4165066;28;20527;-67
2021/04/16 09:38:36;;;;;;;7.97;2.50;;;12.70;88.90;;;;;;4159369;28;20044;-67
2021/04/16 09:40:37;;;;;;;8.23;3.15;;;12.50;83.70;;;;;;4159841;28;20041;-67
2021/04/16 09:42:42;;;;;;;3.28;2.60;;;12.10;86.90;;;;;;4171245;28;20159;-67
2021/04/16 09:44:55;;;;;;;5.53;2.60;;;12.30;94.90;;;;;;4169602;28;20107;-67
2021/04/16 09:47:02;;;;;;;4.32;2.55;;;12.40;91.50;;;;;;4153564;28;20036;-67
2021/04/16 09:49:11;;;;;;;3.70;2.33;;;12.40;84.10;;;;;;4173640;28;20528;-67
2021/04/16 09:51:15;;;;;;;5.65;2.50;;;12.40;93.40;;;;;;4159292;28;20045;-67
2021/04/16 09:53:26;;;;;;;3.90;2.35;;;12.50;90.00;;;;;;4159640;28;20034;-67
2021/04/16 09:56:04;;;;;;;3.97;2.38;;;12.60;88.10;;;;;;4163431;28;20037;-67
2021/04/16 09:58:04;;;;;;;3.50;2.10;;;12.40;75.40;;;;;;4121079;28;20087;-67
2021/04/16 10:00:43;;;;;;;4.43;2.40;;;12.20;78.00;;;;;;4171403;28;20037;-67
2021/04/16 10:02:43;;;;;;;4.57;2.30;;;12.20;79.30;;;;;;4163832;28;20095;-67
2021/04/16 10:05:02;;;;;;;3.17;2.13;;;12.10;81.60;;;;;;4164818;28;20029;-67
2021/04/16 10:07:03;;;;;;;5.05;2.40;;;12.10;89.70;;;;;;4160771;28;20113;-67
2021/04/16 10:09:16;;;;;;;2.90;1.77;;;12.10;89.40;;;;;;4161666;28;20099;-67
2021/04/16 10:11:17;;;;;;;3.15;1.77;;;12.20;91.70;;;;;;4153698;28;20045;-67
2021/04/16 10:13:29;;;;;;;2.85;1.70;;;12.40;77.70;;;;;;4157098;28;20049;-67
2021/04/16 10:15:39;;;;;;;3.30;1.88;;;12.50;77.70;;;;;;4153128;28;20041;-67
2021/04/16 10:17:55;;;;;;;3.78;1.48;;;12.60;79.00;;;;;;4164949;28;20037;-67
2021/04/16 10:20:03;;;;;;;1.95;1.40;;;12.70;74.60;;;;;;4158077;28;20044;-68
2021/04/16 10:22:29;;;;;;;2.30;1.35;;;12.70;75.30;;;;;;4159124;28;20070;-68
2021/04/16 10:51:00;;;;;;;2.90;1.85;;;12.60;72.80;;;;;;4171038;28;20583;-67
2021/04/16 12:38:58;;;;;;;2.85;1.98;;;13.60;58.80;;;;;;4167463;28;20052;-67
2021/04/16 12:41:00;;;;;;;4.30;1.90;;;13.50;59.50;;;;;;4164562;28;20029;-67
2021/04/16 12:43:03;;;;;;;2.25;2.05;;;13.20;55.90;;;;;;4163946;28;20128;-67
2021/04/16 12:45:05;;;;;;;3.25;2.38;;;13.30;61.00;;;;;;4165726;28;20041;-67
2021/04/16 12:47:21;;;;;;;4.82;2.25;;;13.50;68.80;;;;;;4168148;28;20029;-67
2021/04/16 12:49:26;;;;;;;3.47;2.20;;;13.50;66.30;;;;;;4160729;28;20038;-67
2021/04/16 12:51:27;;;;;;;3.92;2.13;;;13.50;65.30;;;;;;4160507;28;20041;-67
2021/04/16 12:53:27;;;;;;;6.20;2.20;;;13.50;65.50;;;;;;4168825;28;20712;-67
2021/04/16 12:55:28;;;;;;;2.72;1.70;;;13.60;67.20;;;;;;4161241;28;20041;-67
2021/04/16 12:57:48;;;;;;;3.58;2.00;;;13.60;65.30;;;;;;4168336;28;20051;-67
2021/04/16 12:59:50;;;;;;;3.33;1.90;;;13.60;61.90;;;;;;4188099;28;20056;-67
2021/04/16 13:01:53;;;;;;;4.47;2.20;;;13.50;63.30;;;;;;4157543;28;20052;-67
2021/04/16 13:03:54;;;;;;;3.60;1.92;;;13.50;59.30;;;;;;4158392;28;20036;-67
2021/04/16 13:05:56;;;;;;;3.80;1.80;;;13.50;59.90;;;;;;4165271;28;20033;-67
2021/04/16 13:07:57;;;;;;;2.65;1.80;;;13.50;57.40;;;;;;4162405;28;20575;-67
2021/04/16 13:09:57;;;;;;;3.13;1.40;;;13.50;56.00;;;;;;4163596;28;20033;-67